createdAt,value
2018-01-23T00:00:48.575Z,60.80
2018-01-23T00:03:16.892Z,63.83
2018-01-23T00:05:45.260Z,58.20
2018-01-23T00:08:13.602Z,69.07
2018-01-23T00:10:41.981Z,65.87
2018-01-23T00:13:10.345Z,66.32
2018-01-23T00:15:38.684Z,58.08
2018-01-23T00:18:07.019Z,59.10
2018-01-23T00:20:35.728Z,64.53
2018-01-23T00:23:04.793Z,70.70
2018-01-23T00:25:33.103Z,72.10
2018-01-23T00:28:01.626Z,77.32
2018-01-23T00:30:29.925Z,75.37
2018-01-23T00:32:58.238Z,64.05
2018-01-23T00:35:26.558Z,72.72
2018-01-23T00:37:54.848Z,66.78
2018-01-23T00:40:23.208Z,66.70
2018-01-23T00:42:51.794Z,70.80
2018-01-23T00:45:20.125Z,60.38
2018-01-23T00:47:48.457Z,62.45
2018-01-23T00:50:16.840Z,62.20
2018-01-23T00:52:45.147Z,62.25
2018-01-23T00:55:13.449Z,68.65
2018-01-23T00:57:41.812Z,65.18
2018-01-23T01:00:10.113Z,66.00
2018-01-23T01:02:39.183Z,74.43
2018-01-23T01:05:07.914Z,68.78
2018-01-23T01:07:36.228Z,59.60
2018-01-23T01:10:04.557Z,61.20
2018-01-23T01:12:33.668Z,68.62
2018-01-23T01:15:01.987Z,57.28
2018-01-23T01:17:31.083Z,58.65
2018-01-23T01:19:59.431Z,56.50
2018-01-23T01:22:27.762Z,62.30
2018-01-23T01:24:56.054Z,49.85
2018-01-23T01:27:24.949Z,59.50
2018-01-23T01:29:53.255Z,51.42
2018-01-23T01:32:21.626Z,58.63
2018-01-23T01:34:49.957Z,60.05
2018-01-23T01:37:18.688Z,55.50
2018-01-23T01:39:47.063Z,55.15
2018-01-23T01:42:15.416Z,51.75
2018-01-23T01:44:43.760Z,57.62
2018-01-23T01:47:12.064Z,58.10
2018-01-23T01:49:40.877Z,56.97
2018-01-23T01:52:09.176Z,62.58
2018-01-23T01:54:37.507Z,48.63
2018-01-23T01:57:05.840Z,51.42
2018-01-23T01:59:34.156Z,55.85
2018-01-23T02:02:02.452Z,52.65
2018-01-23T02:04:30.789Z,57.17
2018-01-23T02:06:59.151Z,49.47
2018-01-23T02:09:27.450Z,56.17
2018-01-23T02:11:56.185Z,53.80
2018-01-23T02:16:59.793Z,66.07
2018-01-23T02:19:28.109Z,54.95
2018-01-23T02:21:56.462Z,50.53
2018-01-23T02:24:24.826Z,48.33
2018-01-23T02:26:53.158Z,53.22
2018-01-23T02:29:21.476Z,49.45
2018-01-23T02:32:00.350Z,46.67
2018-01-23T02:34:28.716Z,52.55
2018-01-23T02:36:57.019Z,56.33
2018-01-23T02:39:25.338Z,49.75
2018-01-23T02:41:53.631Z,58.13
2018-01-23T02:44:22.938Z,46.10
2018-01-23T02:46:51.303Z,51.42
2018-01-23T02:49:19.621Z,44.63
2018-01-23T02:51:47.936Z,52.20
2018-01-23T02:54:16.716Z,44.90
2018-01-23T02:56:45.043Z,44.00
2018-01-23T02:59:14.151Z,43.15
2018-01-23T03:01:43.252Z,53.85
2018-01-23T03:04:11.617Z,48.47
2018-01-23T03:06:39.951Z,43.13
2018-01-23T03:09:08.321Z,44.58
2018-01-23T03:11:37.416Z,53.80
2018-01-23T03:14:06.481Z,50.60
2018-01-23T03:16:35.850Z,51.45
2018-01-23T03:19:04.166Z,54.83
2018-01-23T03:21:32.510Z,56.45
2018-01-23T03:24:00.940Z,55.12
2018-01-23T03:26:29.243Z,52.88
2018-01-23T03:28:57.574Z,56.60
2018-01-23T03:31:25.936Z,44.72
2018-01-23T03:33:54.302Z,47.05
2018-01-23T03:36:22.656Z,57.22
2018-01-23T03:38:52.041Z,52.70
2018-01-23T03:41:20.373Z,46.13
2018-01-23T03:43:48.697Z,57.70
2018-01-23T03:46:17.062Z,47.88
2018-01-23T03:48:45.368Z,56.95
2018-01-23T03:51:13.707Z,59.55
2018-01-23T03:53:42.052Z,67.90
2018-01-23T03:56:10.365Z,52.60
2018-01-23T03:58:38.678Z,58.60
2018-01-23T04:01:07.145Z,54.25
2018-01-23T04:03:35.431Z,59.40
2018-01-23T04:06:03.777Z,50.88
2018-01-23T04:08:32.128Z,57.22
2018-01-23T04:11:00.472Z,55.60
2018-01-23T04:13:28.787Z,55.40
2018-01-23T04:15:57.114Z,67.57
2018-01-23T04:18:25.437Z,68.07
2018-01-23T04:20:53.756Z,77.05
2018-01-23T04:23:22.507Z,72.82
2018-01-23T04:25:50.856Z,70.85
2018-01-23T04:28:19.186Z,60.12
2018-01-23T04:30:47.543Z,71.12
2018-01-23T04:33:15.853Z,71.00
2018-01-23T04:35:44.139Z,70.18
2018-01-23T04:38:12.461Z,68.53
2018-01-23T04:40:40.776Z,60.85
2018-01-23T04:43:09.076Z,54.65
2018-01-23T04:45:37.756Z,65.72
2018-01-23T04:48:06.054Z,55.97
2018-01-23T04:50:34.392Z,54.17
2018-01-23T04:53:02.772Z,68.60
2018-01-23T04:55:31.037Z,62.88
2018-01-23T04:57:59.356Z,56.00
2018-01-23T05:00:28.215Z,55.42
2018-01-23T05:02:56.512Z,60.33
2018-01-23T05:05:24.851Z,55.80
2018-01-23T05:07:53.400Z,64.32
2018-01-23T05:10:22.472Z,76.82
2018-01-23T05:12:50.851Z,59.65
2018-01-23T05:15:19.206Z,77.10
2018-01-23T05:17:47.524Z,81.10
2018-01-23T05:20:16.662Z,77.12
2018-01-23T05:22:44.982Z,61.78
2018-01-23T05:25:13.281Z,70.05
2018-01-23T05:27:41.593Z,69.40
2018-01-23T05:30:09.987Z,67.40
2018-01-23T05:32:38.304Z,60.67
2018-01-23T05:35:06.636Z,68.35
2018-01-23T05:37:34.980Z,67.80
2018-01-23T05:40:04.040Z,70.03
2018-01-23T05:42:32.381Z,67.00
2018-01-23T05:45:00.721Z,58.55
2018-01-23T05:47:29.027Z,55.92
2018-01-23T05:49:57.317Z,71.28
2018-01-23T05:52:26.075Z,59.97
2018-01-23T05:54:55.135Z,62.75
2018-01-23T05:57:24.208Z,54.20
2018-01-23T05:59:52.525Z,60.95
2018-01-23T06:02:20.831Z,63.03
2018-01-23T06:04:49.126Z,69.90
2018-01-23T06:07:17.467Z,59.55
2018-01-23T06:09:45.793Z,57.35
2018-01-23T06:12:14.096Z,64.62
2018-01-23T06:14:42.715Z,68.32
2018-01-23T06:17:11.794Z,70.35
2018-01-23T06:19:40.162Z,83.90
2018-01-23T06:22:08.532Z,68.03
2018-01-23T06:24:36.891Z,60.95
2018-01-23T06:27:05.194Z,69.35
2018-01-23T06:29:33.547Z,83.07
2018-01-23T06:32:01.868Z,82.20
2018-01-23T06:34:30.189Z,63.33
2018-01-23T06:36:58.696Z,65.50
2018-01-23T06:39:26.990Z,57.33
2018-01-23T06:41:55.283Z,66.95
2018-01-23T06:44:23.596Z,62.42
2018-01-23T06:46:51.904Z,66.95
2018-01-23T06:49:20.241Z,69.37
2018-01-23T06:51:48.606Z,63.58
2018-01-23T06:54:17.676Z,67.45
2018-01-23T06:56:45.969Z,62.70
2018-01-23T06:59:14.553Z,65.80
2018-01-23T07:01:42.883Z,75.85
2018-01-23T07:04:11.184Z,63.97
2018-01-23T07:06:39.525Z,74.15
2018-01-23T07:09:07.893Z,66.80
2018-01-23T07:11:36.180Z,92.20
2018-01-23T07:14:04.552Z,71.87
2018-01-23T07:16:32.878Z,61.75
2018-01-23T07:19:01.198Z,62.05
2018-01-23T07:21:30.699Z,78.20
2018-01-23T07:23:59.796Z,53.05
2018-01-23T07:26:28.132Z,61.72
2018-01-23T07:28:56.479Z,71.05
2018-01-23T07:31:24.800Z,60.97
2018-01-23T07:33:53.099Z,90.20
2018-01-23T07:36:21.483Z,74.80
2018-01-23T07:38:50.570Z,69.35
2018-01-23T07:41:18.912Z,68.43
2018-01-23T07:43:47.478Z,80.07
2018-01-23T07:46:15.832Z,76.40
2018-01-23T07:48:44.185Z,81.72
2018-01-23T07:51:12.561Z,71.12
2018-01-23T07:53:40.876Z,80.97
2018-01-23T07:56:09.180Z,148.02
2018-01-23T07:58:37.529Z,85.00
2018-01-23T08:01:05.852Z,68.85
2018-01-23T08:03:34.197Z,72.20
2018-01-23T08:06:02.940Z,80.53
2018-01-23T08:08:31.301Z,80.18
2018-01-23T08:10:59.628Z,89.45
2018-01-23T08:13:27.992Z,71.72
2018-01-23T08:15:56.320Z,77.20
2018-01-23T08:18:24.649Z,89.55
2018-01-23T08:20:53.741Z,83.12
2018-01-23T08:23:22.805Z,67.07
2018-01-23T08:25:51.108Z,76.45
2018-01-23T08:28:19.936Z,85.45
2018-01-23T08:30:48.261Z,78.30
2018-01-23T08:33:16.575Z,73.05
2018-01-23T08:35:44.943Z,88.62
2018-01-23T08:38:13.266Z,98.17
2018-01-23T08:40:41.569Z,100.17
2018-01-23T08:43:09.916Z,98.63
2018-01-23T08:45:38.217Z,89.37
2018-01-23T08:48:06.531Z,120.23
2018-01-23T08:50:35.227Z,96.93
2018-01-23T08:53:04.327Z,101.17
2018-01-23T08:55:33.419Z,132.63
2018-01-23T08:58:01.747Z,104.40
2018-01-23T09:00:30.091Z,149.50
2018-01-23T09:02:58.494Z,130.73
2018-01-23T09:05:26.818Z,113.27
2018-01-23T09:07:55.181Z,143.23
2018-01-23T09:10:23.508Z,121.83
2018-01-23T09:12:52.147Z,162.17
2018-01-23T09:15:20.496Z,138.80
2018-01-23T09:17:48.814Z,160.00
2018-01-23T09:20:17.173Z,139.33
2018-01-23T09:22:45.508Z,129.87
2018-01-23T09:25:13.817Z,141.40
2018-01-23T09:27:42.159Z,153.13
2018-01-23T09:30:10.495Z,166.40
2018-01-23T09:32:38.809Z,161.40
2018-01-23T09:35:07.478Z,143.90
2018-01-23T09:37:35.804Z,169.13
2018-01-23T09:40:04.109Z,152.30
2018-01-23T09:42:32.712Z,133.50
2018-01-23T09:45:01.065Z,229.77
2018-01-23T09:47:29.361Z,142.23
2018-01-23T09:49:57.715Z,141.83
2018-01-23T09:52:26.075Z,122.87
2018-01-23T09:54:54.395Z,163.37
2018-01-23T09:57:22.863Z,117.97
2018-01-23T09:59:51.184Z,118.87
2018-01-23T10:02:20.285Z,131.13
2018-01-23T10:04:48.651Z,127.95
2018-01-23T10:07:17.044Z,124.57
2018-01-23T10:09:46.135Z,111.50
2018-01-23T10:12:15.264Z,94.80
2018-01-23T10:14:43.580Z,109.30
2018-01-23T10:17:11.916Z,107.67
2018-01-23T10:19:41.623Z,101.37
2018-01-23T10:22:09.953Z,89.73
2018-01-23T10:24:38.300Z,80.13
2018-01-23T10:27:06.635Z,96.17
2018-01-23T10:29:34.977Z,71.67
2018-01-23T10:32:03.287Z,81.33
2018-01-23T10:34:32.368Z,99.00
2018-01-23T10:37:00.723Z,87.63
2018-01-23T10:39:29.030Z,84.03
2018-01-23T10:41:57.588Z,77.87
2018-01-23T10:44:25.937Z,89.53
2018-01-23T10:46:54.267Z,85.53
2018-01-23T10:49:22.641Z,89.13
2018-01-23T10:51:50.955Z,77.63
2018-01-23T10:54:19.299Z,84.27
2018-01-23T10:56:47.665Z,90.57
2018-01-23T10:59:15.984Z,89.83
2018-01-23T11:01:44.334Z,92.77
2018-01-23T11:04:12.970Z,86.37
2018-01-23T11:06:41.299Z,109.17
2018-01-23T11:09:09.643Z,102.03
2018-01-23T11:11:37.992Z,94.57
2018-01-23T11:14:06.365Z,88.27
2018-01-23T11:16:34.695Z,101.23
2018-01-23T11:19:03.138Z,89.33
2018-01-23T11:21:31.471Z,104.27
2018-01-23T11:23:59.995Z,95.03
2018-01-23T11:26:28.728Z,101.53
2018-01-23T11:28:57.043Z,103.33
2018-01-23T11:31:26.145Z,93.00
2018-01-23T11:33:54.539Z,82.43
2018-01-23T11:36:22.871Z,108.63
2018-01-23T11:38:51.183Z,97.80
2018-01-23T11:41:19.525Z,97.23
2018-01-23T11:43:47.876Z,86.13
2018-01-23T11:46:16.211Z,79.80
2018-01-23T11:48:45.096Z,92.03
2018-01-23T11:51:13.448Z,92.87
2018-01-23T11:53:41.752Z,94.40
2018-01-23T11:56:10.868Z,69.53
2018-01-23T11:58:39.192Z,88.30
2018-01-23T12:01:07.530Z,78.73
2018-01-23T12:03:36.504Z,89.70
2018-01-23T12:06:05.611Z,77.83
2018-01-23T12:08:34.694Z,82.03
2018-01-23T12:11:03.971Z,76.60
2018-01-23T12:13:32.307Z,89.70
2018-01-23T12:16:00.643Z,67.40
2018-01-23T12:18:29.000Z,73.10
2018-01-23T12:20:57.378Z,71.73
2018-01-23T12:23:25.709Z,66.73
2018-01-23T12:25:54.057Z,71.03
2018-01-23T12:28:23.132Z,66.23
2018-01-23T12:30:51.430Z,65.23
2018-01-23T12:33:20.432Z,91.63
2018-01-23T12:35:49.551Z,62.50
2018-01-23T12:38:17.916Z,69.93
2018-01-23T12:40:47.058Z,85.90
2018-01-23T12:43:15.518Z,72.57
2018-01-23T12:45:43.845Z,78.57
2018-01-23T12:48:12.204Z,67.47
2018-01-23T12:50:40.593Z,63.10
2018-01-23T12:53:08.906Z,59.80
2018-01-23T12:55:38.442Z,64.27
2018-01-23T12:58:06.771Z,54.13
2018-01-23T13:00:35.106Z,63.37
2018-01-23T13:03:03.427Z,64.90
2018-01-23T13:05:31.739Z,59.90
2018-01-23T13:08:00.053Z,74.83
2018-01-23T13:10:28.405Z,51.50
2018-01-23T13:12:56.709Z,57.07
2018-01-23T13:15:25.041Z,63.10
2018-01-23T13:17:53.688Z,64.00
2018-01-23T13:20:21.992Z,70.60
2018-01-23T13:22:50.438Z,66.83
2018-01-23T13:25:18.773Z,49.40
2018-01-23T13:27:47.106Z,58.57
2018-01-23T13:30:15.420Z,59.07
2018-01-23T13:32:44.519Z,58.97
2018-01-23T13:35:13.601Z,55.77
2018-01-23T13:37:42.705Z,52.10
2018-01-23T13:40:12.077Z,59.87
2018-01-23T13:42:40.430Z,54.60
2018-01-23T13:45:08.744Z,50.63
2018-01-23T13:47:37.081Z,51.10
2018-01-23T13:50:05.414Z,58.37
2018-01-23T13:52:33.738Z,51.13
2018-01-23T13:55:02.092Z,48.20
2018-01-23T13:57:31.214Z,44.23
2018-01-23T13:59:59.566Z,44.90
2018-01-23T14:02:28.640Z,53.03
2018-01-23T14:04:56.967Z,52.27
2018-01-23T14:07:25.312Z,43.93
2018-01-23T14:09:54.452Z,44.23
2018-01-23T14:12:22.807Z,52.40
2018-01-23T14:14:51.142Z,41.87
2018-01-23T14:17:19.571Z,41.70
2018-01-23T14:19:47.897Z,40.50
2018-01-23T14:22:16.215Z,49.53
2018-01-23T14:24:44.969Z,46.97
2018-01-23T14:27:13.341Z,50.73
2018-01-23T14:29:41.706Z,47.73
2018-01-23T14:32:10.074Z,64.73
2018-01-23T14:34:38.404Z,52.30
2018-01-23T14:37:07.460Z,46.23
2018-01-23T14:39:35.805Z,50.20
2018-01-23T14:42:04.125Z,55.33
2018-01-23T14:44:32.444Z,51.47
2018-01-23T14:47:01.057Z,63.20
2018-01-23T14:49:29.393Z,59.57
2018-01-23T14:51:59.412Z,66.17
2018-01-23T14:54:28.553Z,48.93
2018-01-23T14:56:56.912Z,55.33
2018-01-23T14:59:25.250Z,59.00
2018-01-23T15:01:54.387Z,58.97
2018-01-23T15:04:22.776Z,49.80
2018-01-23T15:06:51.076Z,57.73
2018-01-23T15:09:19.887Z,48.53
2018-01-23T15:11:48.224Z,60.20
2018-01-23T15:14:16.528Z,55.20
2018-01-23T15:16:44.902Z,51.20
2018-01-23T15:19:13.248Z,67.60
2018-01-23T15:21:41.562Z,57.30
2018-01-23T15:24:09.905Z,46.50
2018-01-23T15:26:38.252Z,55.07
2018-01-23T15:29:06.562Z,56.37
2018-01-23T15:31:35.418Z,52.60
2018-01-23T15:34:03.732Z,53.90
2018-01-23T15:36:32.035Z,46.93
2018-01-23T15:39:00.417Z,42.67
2018-01-23T15:41:28.748Z,49.30
2018-01-23T15:43:57.068Z,53.63
2018-01-23T15:46:25.457Z,56.13
2018-01-23T15:48:53.772Z,45.10
2018-01-23T15:51:22.111Z,48.20
2018-01-23T15:53:50.913Z,40.57
2018-01-23T15:56:19.217Z,42.97
2018-01-23T15:58:47.566Z,48.60
2018-01-23T16:01:15.899Z,38.03
2018-01-23T16:03:44.284Z,38.73
2018-01-23T16:06:12.610Z,36.77
2018-01-23T16:08:40.973Z,43.30
2018-01-23T16:11:09.370Z,45.87
2018-01-23T16:13:37.764Z,38.83
2018-01-23T16:16:07.262Z,46.47
2018-01-23T16:18:35.601Z,33.30
2018-01-23T16:21:03.943Z,25.53
2018-01-23T16:23:33.099Z,31.90
2018-01-23T16:26:01.437Z,31.93
2018-01-23T16:28:29.764Z,38.43
2018-01-23T16:30:58.149Z,34.30
2018-01-23T16:33:26.502Z,30.70
2018-01-23T16:35:54.853Z,25.00
2018-01-23T16:38:23.260Z,29.93
2018-01-23T16:40:51.664Z,27.17
2018-01-23T16:43:20.014Z,41.17
2018-01-23T16:45:48.376Z,34.93
2018-01-23T16:48:16.745Z,28.73
2018-01-23T16:50:45.095Z,27.93
2018-01-23T16:53:13.540Z,23.60
2018-01-23T16:55:42.693Z,20.93
2018-01-23T16:58:11.781Z,32.30
2018-01-23T17:00:41.280Z,41.37
2018-01-23T17:03:10.340Z,33.90
2018-01-23T17:05:38.645Z,23.00
2018-01-23T17:08:07.750Z,29.10
2018-01-23T17:10:36.850Z,28.63
2018-01-23T17:13:05.928Z,28.97
2018-01-23T17:15:34.259Z,34.43
2018-01-23T17:18:02.572Z,32.70
2018-01-23T17:20:30.858Z,35.27
2018-01-23T17:22:59.529Z,35.53
2018-01-23T17:25:27.831Z,36.63
2018-01-23T17:27:56.155Z,47.00
2018-01-23T17:30:24.516Z,32.43
2018-01-23T17:32:52.833Z,30.57
2018-01-23T17:35:21.136Z,28.97
2018-01-23T17:37:49.500Z,29.17
2018-01-23T17:40:17.809Z,17.33
2018-01-23T17:42:46.900Z,22.80
2018-01-23T17:45:16.102Z,26.20
2018-01-23T17:47:45.406Z,28.53
2018-01-23T17:50:14.504Z,30.17
2018-01-23T17:52:43.605Z,28.03
2018-01-23T17:55:12.745Z,25.50
2018-01-23T17:57:41.055Z,26.63
2018-01-23T18:00:09.390Z,24.57
2018-01-23T18:02:37.685Z,19.77
2018-01-23T18:05:06.025Z,22.07
2018-01-23T18:07:34.739Z,24.13
2018-01-23T18:10:03.123Z,28.40
2018-01-23T18:12:31.432Z,22.23
2018-01-23T18:14:59.809Z,16.53
2018-01-23T18:17:28.247Z,14.10
2018-01-23T18:19:56.628Z,23.77
2018-01-23T18:22:25.001Z,20.57
2018-01-23T18:24:53.427Z,20.80
2018-01-23T18:27:21.807Z,19.50
2018-01-23T18:29:50.433Z,32.73
2018-01-23T18:32:18.755Z,15.70
2018-01-23T18:34:47.110Z,25.07
2018-01-23T18:37:15.452Z,18.40
2018-01-23T18:39:43.779Z,23.73
2018-01-23T18:42:12.084Z,19.30
2018-01-23T18:44:41.221Z,22.63
2018-01-23T18:47:09.567Z,16.33
2018-01-23T18:49:37.874Z,25.20
2018-01-23T18:52:06.505Z,18.90
2018-01-23T18:54:34.820Z,20.60
2018-01-23T18:57:03.156Z,18.33
2018-01-23T18:59:31.499Z,18.53
2018-01-23T19:01:59.860Z,19.87
2018-01-23T19:04:28.206Z,16.63
2018-01-23T19:06:56.605Z,17.83
2018-01-23T19:09:24.974Z,36.70
2018-01-23T19:11:53.361Z,21.43
2018-01-23T19:14:21.900Z,21.93
2018-01-23T19:16:50.254Z,14.23
2018-01-23T19:19:19.324Z,20.63
2018-01-23T19:21:47.704Z,16.13
2018-01-23T19:24:16.069Z,20.63
2018-01-23T19:26:44.379Z,20.10
2018-01-23T19:29:13.896Z,19.60
2018-01-23T19:31:42.979Z,28.33
2018-01-23T19:34:12.142Z,28.03
2018-01-23T19:36:40.555Z,17.70
2018-01-23T19:39:09.650Z,21.30
2018-01-23T19:41:38.735Z,12.30
2018-01-23T19:44:07.127Z,22.70
2018-01-23T19:46:36.464Z,16.43
2018-01-23T19:49:04.809Z,23.43
2018-01-23T19:51:33.937Z,17.67
2018-01-23T19:54:02.276Z,17.00
2018-01-23T19:56:30.633Z,19.20
2018-01-23T19:58:59.410Z,16.20
2018-01-23T20:01:27.769Z,18.37
2018-01-23T20:03:56.159Z,24.83
2018-01-23T20:06:24.536Z,23.73
2018-01-23T20:08:53.614Z,22.70
2018-01-23T20:11:21.961Z,22.10
2018-01-23T20:13:51.830Z,23.10
2018-01-23T20:16:20.134Z,20.43
2018-01-23T20:18:48.464Z,15.68
2018-01-23T20:21:17.428Z,18.73
2018-01-23T20:23:45.769Z,17.67
2018-01-23T20:26:14.105Z,15.90
2018-01-23T20:28:42.490Z,21.17
2018-01-23T20:31:10.841Z,14.10
2018-01-23T20:33:39.965Z,18.87
2018-01-23T20:36:08.304Z,20.20
2018-01-23T20:38:36.626Z,17.83
2018-01-23T20:41:04.949Z,14.13
2018-01-23T20:43:33.753Z,13.60
2018-01-23T20:46:02.115Z,15.73
2018-01-23T20:48:30.461Z,17.05
2018-01-23T20:50:58.800Z,15.23
2018-01-23T20:53:27.133Z,13.98
2018-01-23T20:55:55.492Z,14.90
2018-01-23T20:58:23.860Z,11.65
2018-01-23T21:00:52.240Z,17.87
2018-01-23T21:03:20.582Z,13.73
2018-01-23T21:05:49.252Z,10.87
2018-01-23T21:08:17.565Z,8.82
2018-01-23T21:10:45.975Z,11.30
2018-01-23T21:13:14.356Z,8.20
2018-01-23T21:15:43.491Z,14.60
2018-01-23T21:18:11.853Z,21.20
2018-01-23T21:20:40.264Z,14.10
2018-01-23T21:23:09.388Z,21.90
2018-01-23T21:25:37.745Z,13.63
2018-01-23T21:28:07.520Z,17.40
2018-01-23T21:30:36.595Z,12.63
2018-01-23T21:33:04.926Z,10.20
2018-01-23T21:35:33.350Z,16.77
2018-01-23T21:38:01.761Z,16.60
2018-01-23T21:40:30.117Z,12.23
2018-01-23T21:42:58.488Z,17.63
2018-01-23T21:45:26.818Z,18.73
2018-01-23T21:47:55.210Z,16.00
2018-01-23T21:50:23.984Z,17.40
2018-01-23T21:52:52.352Z,21.27
2018-01-23T21:55:20.695Z,9.53
2018-01-23T21:57:49.091Z,17.03
2018-01-23T22:00:17.424Z,20.07
2018-01-23T22:02:45.789Z,14.00
2018-01-23T22:05:14.961Z,13.13
2018-01-23T22:07:43.284Z,20.07
2018-01-23T22:10:11.621Z,20.50
2018-01-23T22:12:40.330Z,17.33
2018-01-23T22:15:08.650Z,14.30
2018-01-23T22:17:36.988Z,25.60
2018-01-23T22:20:06.118Z,22.40
2018-01-23T22:22:34.435Z,16.80
2018-01-23T22:25:02.780Z,25.80
2018-01-23T22:27:31.144Z,19.87
2018-01-23T22:29:59.473Z,24.90
2018-01-23T22:32:27.802Z,20.27
2018-01-23T22:34:56.561Z,27.23
2018-01-23T22:37:25.684Z,18.93
2018-01-23T22:39:53.990Z,23.70
2018-01-23T22:42:22.323Z,25.47
2018-01-23T22:44:51.417Z,19.20
2018-01-23T22:47:19.732Z,20.97
2018-01-23T22:49:48.104Z,25.93
2018-01-23T22:52:16.591Z,24.47
2018-01-23T22:54:44.890Z,20.93
2018-01-23T22:57:13.810Z,18.77
2018-01-23T22:59:42.112Z,30.53
2018-01-23T23:02:11.194Z,20.90
2018-01-23T23:04:39.546Z,23.03
2018-01-23T23:07:07.840Z,14.40
2018-01-23T23:09:36.150Z,21.00
2018-01-23T23:12:04.496Z,19.63
2018-01-23T23:14:32.819Z,15.40
2018-01-23T23:17:01.134Z,21.87
2018-01-23T23:19:30.148Z,20.60
2018-01-23T23:21:58.478Z,26.77
2018-01-23T23:24:26.818Z,18.80
2018-01-23T23:26:55.920Z,18.43
2018-01-23T23:29:24.987Z,20.10
2018-01-23T23:31:53.381Z,23.73
2018-01-23T23:34:21.722Z,22.97
2018-01-23T23:36:50.024Z,21.57
2018-01-23T23:39:18.346Z,24.00
2018-01-23T23:41:46.952Z,24.33
2018-01-23T23:44:15.260Z,19.30
2018-01-23T23:46:43.585Z,23.20
2018-01-23T23:49:11.904Z,20.37
2018-01-23T23:51:40.206Z,24.43
2018-01-23T23:54:08.519Z,20.33
2018-01-23T23:56:36.852Z,23.57
2018-01-23T23:59:05.146Z,24.53
